sensor_id;sensor_type;location;lat;lon;timestamp;temperature;humidity
24645;DHT22;12780;45.502;9.146;2022-09-03T00:01:49;24.00;99.90
24645;DHT22;12780;45.502;9.146;2022-09-03T00:04:31;24.00;99.90
24645;DHT22;12780;45.502;9.146;2022-09-03T00:07:04;24.00;99.90
24645;DHT22;12780;45.502;9.146;2022-09-03T00:09:35;24.10;99.90
24645;DHT22;12780;45.502;9.146;2022-09-03T00:15:00;24.10;99.90
24645;DHT22;12780;45.502;9.146;2022-09-03T00:17:39;24.10;99.90
24645;DHT22;12780;45.502;9.146;2022-09-03T00:20:15;24.10;99.90
24645;DHT22;12780;45.502;9.146;2022-09-03T00:22:51;24.10;99.90
24645;DHT22;12780;45.502;9.146;2022-09-03T00:25:28;24.10;99.90
24645;DHT22;12780;45.502;9.146;2022-09-03T00:27:56;24.00;99.90
24645;DHT22;12780;45.502;9.146;2022-09-03T00:30:23;24.00;99.90
24645;DHT22;12780;45.502;9.146;2022-09-03T00:32:58;24.00;99.90
24645;DHT22;12780;45.502;9.146;2022-09-03T00:35:53;24.00;99.90
24645;DHT22;12780;45.502;9.146;2022-09-03T00:38:20;23.90;99.90
24645;DHT22;12780;45.502;9.146;2022-09-03T00:44:15;23.80;99.90
24645;DHT22;12780;45.502;9.146;2022-09-03T00:46:54;23.90;99.90
24645;DHT22;12780;45.502;9.146;2022-09-03T01:00:54;23.70;99.90
24645;DHT22;12780;45.502;9.146;2022-09-03T01:03:46;23.60;99.90
24645;DHT22;12780;45.502;9.146;2022-09-03T01:06:27;23.60;99.90
24645;DHT22;12780;45.502;9.146;2022-09-03T01:09:15;23.60;99.90
24645;DHT22;12780;45.502;9.146;2022-09-03T01:12:08;23.60;99.90
24645;DHT22;12780;45.502;9.146;2022-09-03T01:26:07;23.50;99.90
24645;DHT22;12780;45.502;9.146;2022-09-03T01:28:36;23.40;99.90
24645;DHT22;12780;45.502;9.146;2022-09-03T01:37:05;23.30;99.90
24645;DHT22;12780;45.502;9.146;2022-09-03T01:39:46;23.20;99.90
24645;DHT22;12780;45.502;9.146;2022-09-03T01:48:00;22.80;99.90
24645;DHT22;12780;45.502;9.146;2022-09-03T01:53:25;22.50;99.90
24645;DHT22;12780;45.502;9.146;2022-09-03T01:58:40;22.20;99.90
24645;DHT22;12780;45.502;9.146;2022-09-03T02:01:14;22.00;99.90
24645;DHT22;12780;45.502;9.146;2022-09-03T02:03:41;21.90;99.90
24645;DHT22;12780;45.502;9.146;2022-09-03T02:06:10;21.90;99.90
24645;DHT22;12780;45.502;9.146;2022-09-03T02:08:36;21.80;99.90
24645;DHT22;12780;45.502;9.146;2022-09-03T02:11:05;21.80;99.90
24645;DHT22;12780;45.502;9.146;2022-09-03T02:13:38;21.80;99.90
24645;DHT22;12780;45.502;9.146;2022-09-03T02:16:14;21.70;99.90
24645;DHT22;12780;45.502;9.146;2022-09-03T02:18:44;21.70;99.90
24645;DHT22;12780;45.502;9.146;2022-09-03T02:21:13;21.60;99.90
24645;DHT22;12780;45.502;9.146;2022-09-03T02:23:40;21.60;99.90
24645;DHT22;12780;45.502;9.146;2022-09-03T02:26:08;21.60;99.90
24645;DHT22;12780;45.502;9.146;2022-09-03T02:28:34;21.60;99.90
24645;DHT22;12780;45.502;9.146;2022-09-03T02:31:00;21.60;99.90
24645;DHT22;12780;45.502;9.146;2022-09-03T02:33:26;21.60;99.90
24645;DHT22;12780;45.502;9.146;2022-09-03T02:35:52;21.60;99.90
24645;DHT22;12780;45.502;9.146;2022-09-03T02:38:21;21.60;99.90
24645;DHT22;12780;45.502;9.146;2022-09-03T02:40:49;21.60;99.90
24645;DHT22;12780;45.502;9.146;2022-09-03T02:45:53;21.70;99.90
24645;DHT22;12780;45.502;9.146;2022-09-03T02:48:22;21.70;99.90
24645;DHT22;12780;45.502;9.146;2022-09-03T02:50:48;21.80;99.90
24645;DHT22;12780;45.502;9.146;2022-09-03T02:53:14;21.80;99.90
24645;DHT22;12780;45.502;9.146;2022-09-03T02:55:40;21.80;99.90
24645;DHT22;12780;45.502;9.146;2022-09-03T02:58:06;21.70;99.90
24645;DHT22;12780;45.502;9.146;2022-09-03T03:00:33;21.70;99.90
24645;DHT22;12780;45.502;9.146;2022-09-03T03:03:00;21.70;99.90
24645;DHT22;12780;45.502;9.146;2022-09-03T03:05:52;21.60;99.90
24645;DHT22;12780;45.502;9.146;2022-09-03T03:08:20;21.70;99.90
24645;DHT22;12780;45.502;9.146;2022-09-03T03:10:48;21.70;99.90
24645;DHT22;12780;45.502;9.146;2022-09-03T03:13:15;21.70;99.90
24645;DHT22;12780;45.502;9.146;2022-09-03T03:15:41;21.70;99.90
24645;DHT22;12780;45.502;9.146;2022-09-03T03:18:07;21.70;99.90
24645;DHT22;12780;45.502;9.146;2022-09-03T03:20:39;21.70;99.90
24645;DHT22;12780;45.502;9.146;2022-09-03T03:23:06;21.70;99.90
24645;DHT22;12780;45.502;9.146;2022-09-03T03:25:33;21.70;99.90
24645;DHT22;12780;45.502;9.146;2022-09-03T03:27:59;21.70;99.90
24645;DHT22;12780;45.502;9.146;2022-09-03T03:30:25;21.70;99.90
24645;DHT22;12780;45.502;9.146;2022-09-03T03:32:52;21.70;99.90
24645;DHT22;12780;45.502;9.146;2022-09-03T03:35:18;21.70;99.90
24645;DHT22;12780;45.502;9.146;2022-09-03T03:37:44;21.70;99.90
24645;DHT22;12780;45.502;9.146;2022-09-03T03:40:10;21.80;99.90
24645;DHT22;12780;45.502;9.146;2022-09-03T03:42:36;21.80;99.90
24645;DHT22;12780;45.502;9.146;2022-09-03T03:45:01;21.80;99.90
24645;DHT22;12780;45.502;9.146;2022-09-03T03:47:28;21.80;99.90
24645;DHT22;12780;45.502;9.146;2022-09-03T03:49:56;21.80;99.90
24645;DHT22;12780;45.502;9.146;2022-09-03T03:52:22;21.80;99.90
24645;DHT22;12780;45.502;9.146;2022-09-03T03:54:48;21.80;99.90
24645;DHT22;12780;45.502;9.146;2022-09-03T03:57:14;21.80;99.90
24645;DHT22;12780;45.502;9.146;2022-09-03T03:59:40;21.80;99.90
24645;DHT22;12780;45.502;9.146;2022-09-03T04:02:06;21.80;99.90
24645;DHT22;12780;45.502;9.146;2022-09-03T04:04:31;21.80;99.90
24645;DHT22;12780;45.502;9.146;2022-09-03T04:06:57;21.80;99.90
24645;DHT22;12780;45.502;9.146;2022-09-03T04:09:23;21.80;99.90
24645;DHT22;12780;45.502;9.146;2022-09-03T04:11:48;21.80;99.90
24645;DHT22;12780;45.502;9.146;2022-09-03T04:14:15;21.80;99.90
24645;DHT22;12780;45.502;9.146;2022-09-03T04:16:42;21.80;99.90
24645;DHT22;12780;45.502;9.146;2022-09-03T04:19:11;21.70;99.90
24645;DHT22;12780;45.502;9.146;2022-09-03T04:21:37;21.70;99.90
24645;DHT22;12780;45.502;9.146;2022-09-03T04:24:03;21.70;99.90
24645;DHT22;12780;45.502;9.146;2022-09-03T04:26:31;21.70;99.90
24645;DHT22;12780;45.502;9.146;2022-09-03T04:28:57;21.70;99.90
24645;DHT22;12780;45.502;9.146;2022-09-03T04:31:23;21.70;99.90
24645;DHT22;12780;45.502;9.146;2022-09-03T04:33:49;21.70;99.90
24645;DHT22;12780;45.502;9.146;2022-09-03T04:36:20;21.70;99.90
24645;DHT22;12780;45.502;9.146;2022-09-03T04:38:47;21.70;99.90
24645;DHT22;12780;45.502;9.146;2022-09-03T04:41:16;21.70;99.90
24645;DHT22;12780;45.502;9.146;2022-09-03T04:43:42;21.80;99.90
24645;DHT22;12780;45.502;9.146;2022-09-03T04:46:09;21.70;99.90
24645;DHT22;12780;45.502;9.146;2022-09-03T04:48:36;21.80;99.90
24645;DHT22;12780;45.502;9.146;2022-09-03T04:51:22;21.80;99.90
24645;DHT22;12780;45.502;9.146;2022-09-03T04:53:54;21.70;99.90
24645;DHT22;12780;45.502;9.146;2022-09-03T04:56:29;21.70;99.90
24645;DHT22;12780;45.502;9.146;2022-09-03T04:58:57;21.70;99.90
24645;DHT22;12780;45.502;9.146;2022-09-03T05:01:25;21.70;99.90
24645;DHT22;12780;45.502;9.146;2022-09-03T05:03:51;21.70;99.90
24645;DHT22;12780;45.502;9.146;2022-09-03T05:06:17;21.80;99.90
24645;DHT22;12780;45.502;9.146;2022-09-03T05:08:47;21.70;99.90
24645;DHT22;12780;45.502;9.146;2022-09-03T05:11:13;21.70;99.90
24645;DHT22;12780;45.502;9.146;2022-09-03T05:13:39;21.70;99.90
24645;DHT22;12780;45.502;9.146;2022-09-03T05:16:07;21.70;99.90
24645;DHT22;12780;45.502;9.146;2022-09-03T05:18:33;21.70;99.90
24645;DHT22;12780;45.502;9.146;2022-09-03T05:21:06;21.80;99.90
24645;DHT22;12780;45.502;9.146;2022-09-03T05:23:37;21.80;99.90
24645;DHT22;12780;45.502;9.146;2022-09-03T05:26:05;21.80;99.90
24645;DHT22;12780;45.502;9.146;2022-09-03T05:28:34;21.80;99.90
24645;DHT22;12780;45.502;9.146;2022-09-03T05:31:06;21.80;99.90
24645;DHT22;12780;45.502;9.146;2022-09-03T05:33:37;21.80;99.90
24645;DHT22;12780;45.502;9.146;2022-09-03T05:36:05;21.80;99.90
24645;DHT22;12780;45.502;9.146;2022-09-03T05:38:31;21.80;99.90
24645;DHT22;12780;45.502;9.146;2022-09-03T05:41:07;21.90;99.90
24645;DHT22;12780;45.502;9.146;2022-09-03T05:43:34;21.90;99.90
24645;DHT22;12780;45.502;9.146;2022-09-03T05:46:08;21.90;99.90
24645;DHT22;12780;45.502;9.146;2022-09-03T05:48:35;21.90;99.90
24645;DHT22;12780;45.502;9.146;2022-09-03T05:51:06;22.00;99.90
24645;DHT22;12780;45.502;9.146;2022-09-03T05:53:34;22.00;99.90
24645;DHT22;12780;45.502;9.146;2022-09-03T05:56:02;22.00;99.90
24645;DHT22;12780;45.502;9.146;2022-09-03T05:58:36;22.00;99.90
24645;DHT22;12780;45.502;9.146;2022-09-03T06:01:14;22.00;99.90
24645;DHT22;12780;45.502;9.146;2022-09-03T06:03:41;22.10;99.90
24645;DHT22;12780;45.502;9.146;2022-09-03T06:06:07;22.20;99.90
24645;DHT22;12780;45.502;9.146;2022-09-03T06:08:34;22.20;99.90
24645;DHT22;12780;45.502;9.146;2022-09-03T06:11:00;22.20;99.90
24645;DHT22;12780;45.502;9.146;2022-09-03T06:13:27;22.20;99.90
24645;DHT22;12780;45.502;9.146;2022-09-03T06:15:57;22.30;99.90
24645;DHT22;12780;45.502;9.146;2022-09-03T06:18:27;22.30;99.90
24645;DHT22;12780;45.502;9.146;2022-09-03T06:21:13;22.40;99.90
24645;DHT22;12780;45.502;9.146;2022-09-03T06:23:39;22.50;99.90
24645;DHT22;12780;45.502;9.146;2022-09-03T06:28:35;22.70;99.90
24645;DHT22;12780;45.502;9.146;2022-09-03T06:31:04;22.80;99.90
24645;DHT22;12780;45.502;9.146;2022-09-03T06:33:32;22.90;99.90
24645;DHT22;12780;45.502;9.146;2022-09-03T06:35:59;22.90;99.90
24645;DHT22;12780;45.502;9.146;2022-09-03T06:38:26;22.90;99.90
24645;DHT22;12780;45.502;9.146;2022-09-03T06:40:57;22.90;99.90
24645;DHT22;12780;45.502;9.146;2022-09-03T06:43:26;23.00;99.90
24645;DHT22;12780;45.502;9.146;2022-09-03T06:46:04;23.00;99.90
24645;DHT22;12780;45.502;9.146;2022-09-03T06:48:31;23.10;99.90
24645;DHT22;12780;45.502;9.146;2022-09-03T06:50:59;23.10;99.90
24645;DHT22;12780;45.502;9.146;2022-09-03T06:53:27;23.10;99.90
24645;DHT22;12780;45.502;9.146;2022-09-03T06:56:00;23.20;99.90
24645;DHT22;12780;45.502;9.146;2022-09-03T06:58:32;23.20;99.90
24645;DHT22;12780;45.502;9.146;2022-09-03T07:01:05;23.20;99.90
24645;DHT22;12780;45.502;9.146;2022-09-03T07:03:32;23.30;99.90
24645;DHT22;12780;45.502;9.146;2022-09-03T07:06:02;23.30;99.90
24645;DHT22;12780;45.502;9.146;2022-09-03T07:08:29;23.30;99.90
24645;DHT22;12780;45.502;9.146;2022-09-03T07:11:00;23.20;99.90
24645;DHT22;12780;45.502;9.146;2022-09-03T07:13:43;23.40;99.90
24645;DHT22;12780;45.502;9.146;2022-09-03T07:16:32;23.50;99.90
24645;DHT22;12780;45.502;9.146;2022-09-03T07:18:58;23.70;99.90
24645;DHT22;12780;45.502;9.146;2022-09-03T07:21:27;23.80;99.90
24645;DHT22;12780;45.502;9.146;2022-09-03T07:23:54;23.90;99.90
24645;DHT22;12780;45.502;9.146;2022-09-03T07:26:25;23.90;99.90
24645;DHT22;12780;45.502;9.146;2022-09-03T07:28:52;23.90;99.90
24645;DHT22;12780;45.502;9.146;2022-09-03T07:31:20;23.70;99.90
24645;DHT22;12780;45.502;9.146;2022-09-03T07:33:55;23.60;99.90
24645;DHT22;12780;45.502;9.146;2022-09-03T07:36:23;23.60;99.90
24645;DHT22;12780;45.502;9.146;2022-09-03T07:38:49;23.60;99.90
24645;DHT22;12780;45.502;9.146;2022-09-03T07:41:15;23.60;99.90
24645;DHT22;12780;45.502;9.146;2022-09-03T07:43:45;23.70;99.90
24645;DHT22;12780;45.502;9.146;2022-09-03T07:46:18;23.70;99.90
24645;DHT22;12780;45.502;9.146;2022-09-03T07:48:48;23.80;99.90
24645;DHT22;12780;45.502;9.146;2022-09-03T07:51:17;24.10;99.90
24645;DHT22;12780;45.502;9.146;2022-09-03T07:53:46;24.30;99.90
24645;DHT22;12780;45.502;9.146;2022-09-03T07:56:13;24.40;99.90
24645;DHT22;12780;45.502;9.146;2022-09-03T07:58:39;24.40;99.90
24645;DHT22;12780;45.502;9.146;2022-09-03T08:01:13;24.20;99.90
24645;DHT22;12780;45.502;9.146;2022-09-03T08:03:42;24.20;99.90
24645;DHT22;12780;45.502;9.146;2022-09-03T08:06:09;24.10;99.90
24645;DHT22;12780;45.502;9.146;2022-09-03T08:08:35;24.10;99.90
24645;DHT22;12780;45.502;9.146;2022-09-03T08:11:15;24.00;99.90
24645;DHT22;12780;45.502;9.146;2022-09-03T08:13:43;24.00;99.90
24645;DHT22;12780;45.502;9.146;2022-09-03T08:16:11;24.10;99.90
24645;DHT22;12780;45.502;9.146;2022-09-03T08:18:37;24.10;99.90
24645;DHT22;12780;45.502;9.146;2022-09-03T08:21:15;24.10;99.90
24645;DHT22;12780;45.502;9.146;2022-09-03T08:23:46;24.10;99.90
24645;DHT22;12780;45.502;9.146;2022-09-03T08:26:13;24.00;99.90
24645;DHT22;12780;45.502;9.146;2022-09-03T08:28:39;24.10;99.90
24645;DHT22;12780;45.502;9.146;2022-09-03T08:33:31;24.10;99.90
24645;DHT22;12780;45.502;9.146;2022-09-03T08:36:06;24.20;99.90
24645;DHT22;12780;45.502;9.146;2022-09-03T08:38:33;24.20;99.90
24645;DHT22;12780;45.502;9.146;2022-09-03T08:41:06;24.20;99.90
24645;DHT22;12780;45.502;9.146;2022-09-03T08:43:47;24.20;99.90
24645;DHT22;12780;45.502;9.146;2022-09-03T08:46:15;24.30;99.90
24645;DHT22;12780;45.502;9.146;2022-09-03T08:48:41;24.20;99.90
24645;DHT22;12780;45.502;9.146;2022-09-03T08:51:08;24.20;99.90
24645;DHT22;12780;45.502;9.146;2022-09-03T08:53:43;24.20;99.90
24645;DHT22;12780;45.502;9.146;2022-09-03T08:56:19;24.10;99.90
24645;DHT22;12780;45.502;9.146;2022-09-03T08:58:45;24.00;99.90
24645;DHT22;12780;45.502;9.146;2022-09-03T09:17:59;23.10;99.90
24645;DHT22;12780;45.502;9.146;2022-09-03T09:20:41;23.10;99.90
24645;DHT22;12780;45.502;9.146;2022-09-03T09:23:14;23.20;99.90
24645;DHT22;12780;45.502;9.146;2022-09-03T09:25:48;23.30;99.90
24645;DHT22;12780;45.502;9.146;2022-09-03T09:28:21;23.40;99.90
24645;DHT22;12780;45.502;9.146;2022-09-03T09:30:49;23.40;99.90
24645;DHT22;12780;45.502;9.146;2022-09-03T09:33:17;23.40;99.90
24645;DHT22;12780;45.502;9.146;2022-09-03T09:35:44;23.50;99.90
24645;DHT22;12780;45.502;9.146;2022-09-03T09:38:11;23.50;99.90
24645;DHT22;12780;45.502;9.146;2022-09-03T09:40:39;23.60;99.90
24645;DHT22;12780;45.502;9.146;2022-09-03T09:43:17;23.60;99.90
24645;DHT22;12780;45.502;9.146;2022-09-03T09:45:50;23.70;99.90
24645;DHT22;12780;45.502;9.146;2022-09-03T09:51:05;23.90;99.90
24645;DHT22;12780;45.502;9.146;2022-09-03T09:53:31;24.00;99.90
24645;DHT22;12780;45.502;9.146;2022-09-03T09:55:57;24.20;99.90
24645;DHT22;12780;45.502;9.146;2022-09-03T09:58:25;24.20;99.90
24645;DHT22;12780;45.502;9.146;2022-09-03T10:03:30;24.30;99.90
24645;DHT22;12780;45.502;9.146;2022-09-03T10:06:09;24.40;99.90
24645;DHT22;12780;45.502;9.146;2022-09-03T10:09:14;24.50;99.90
24645;DHT22;12780;45.502;9.146;2022-09-03T10:11:41;24.70;99.90
24645;DHT22;12780;45.502;9.146;2022-09-03T10:14:18;24.90;99.90
24645;DHT22;12780;45.502;9.146;2022-09-03T10:16:52;25.10;99.90
24645;DHT22;12780;45.502;9.146;2022-09-03T10:19:22;25.20;99.90
24645;DHT22;12780;45.502;9.146;2022-09-03T10:21:56;25.40;99.90
24645;DHT22;12780;45.502;9.146;2022-09-03T10:27:19;25.30;99.90
24645;DHT22;12780;45.502;9.146;2022-09-03T10:29:46;25.20;99.90
24645;DHT22;12780;45.502;9.146;2022-09-03T10:37:50;25.10;99.90
24645;DHT22;12780;45.502;9.146;2022-09-03T10:46:04;25.10;99.90
24645;DHT22;12780;45.502;9.146;2022-09-03T10:51:26;25.30;99.90
24645;DHT22;12780;45.502;9.146;2022-09-03T10:57:16;25.60;99.90
24645;DHT22;12780;45.502;9.146;2022-09-03T11:00:06;25.80;99.90
24645;DHT22;12780;45.502;9.146;2022-09-03T11:08:24;26.30;99.90
24645;DHT22;12780;45.502;9.146;2022-09-03T11:10:54;26.40;99.90
24645;DHT22;12780;45.502;9.146;2022-09-03T11:13:31;26.40;99.90
24645;DHT22;12780;45.502;9.146;2022-09-03T11:16:22;26.50;99.90
24645;DHT22;12780;45.502;9.146;2022-09-03T11:18:55;26.40;99.90
24645;DHT22;12780;45.502;9.146;2022-09-03T11:21:25;26.30;99.90
24645;DHT22;12780;45.502;9.146;2022-09-03T11:26:29;26.00;99.90
24645;DHT22;12780;45.502;9.146;2022-09-03T11:36:50;25.90;99.90
24645;DHT22;12780;45.502;9.146;2022-09-03T11:42:03;26.10;99.90
24645;DHT22;12780;45.502;9.146;2022-09-03T11:44:39;26.10;99.90
24645;DHT22;12780;45.502;9.146;2022-09-03T11:47:22;25.90;99.90
24645;DHT22;12780;45.502;9.146;2022-09-03T11:50:03;25.80;99.90
24645;DHT22;12780;45.502;9.146;2022-09-03T11:52:30;25.80;99.90
24645;DHT22;12780;45.502;9.146;2022-09-03T11:55:06;25.80;99.90
24645;DHT22;12780;45.502;9.146;2022-09-03T11:57:32;25.80;99.90
24645;DHT22;12780;45.502;9.146;2022-09-03T12:00:14;25.80;99.90
24645;DHT22;12780;45.502;9.146;2022-09-03T12:02:59;25.80;99.90
24645;DHT22;12780;45.502;9.146;2022-09-03T12:19:48;26.60;99.90
24645;DHT22;12780;45.502;9.146;2022-09-03T12:22:17;26.60;99.90
24645;DHT22;12780;45.502;9.146;2022-09-03T12:24:43;26.60;99.90
24645;DHT22;12780;45.502;9.146;2022-09-03T12:27:19;26.60;99.90
24645;DHT22;12780;45.502;9.146;2022-09-03T12:30:00;26.80;99.90
24645;DHT22;12780;45.502;9.146;2022-09-03T12:32:35;27.00;99.90
24645;DHT22;12780;45.502;9.146;2022-09-03T12:35:13;27.10;99.90
24645;DHT22;12780;45.502;9.146;2022-09-03T12:37:41;27.20;99.90
24645;DHT22;12780;45.502;9.146;2022-09-03T12:40:19;27.20;99.90
24645;DHT22;12780;45.502;9.146;2022-09-03T12:42:46;27.40;99.90
24645;DHT22;12780;45.502;9.146;2022-09-03T12:45:12;27.40;99.90
24645;DHT22;12780;45.502;9.146;2022-09-03T12:47:41;27.20;99.90
24645;DHT22;12780;45.502;9.146;2022-09-03T12:50:12;26.90;99.90
24645;DHT22;12780;45.502;9.146;2022-09-03T12:52:43;26.90;99.90
24645;DHT22;12780;45.502;9.146;2022-09-03T12:55:27;27.00;99.90
24645;DHT22;12780;45.502;9.146;2022-09-03T13:00:28;27.10;99.90
24645;DHT22;12780;45.502;9.146;2022-09-03T13:03:01;27.20;99.90
24645;DHT22;12780;45.502;9.146;2022-09-03T13:05:34;27.40;99.90
24645;DHT22;12780;45.502;9.146;2022-09-03T13:08:02;27.40;99.90
24645;DHT22;12780;45.502;9.146;2022-09-03T13:10:36;27.50;99.90
24645;DHT22;12780;45.502;9.146;2022-09-03T13:13:20;27.60;99.90
24645;DHT22;12780;45.502;9.146;2022-09-03T13:18:52;27.70;99.90
24645;DHT22;12780;45.502;9.146;2022-09-03T13:32:10;27.50;99.90
24645;DHT22;12780;45.502;9.146;2022-09-03T13:34:47;27.50;99.90
24645;DHT22;12780;45.502;9.146;2022-09-03T13:37:36;27.60;99.90
24645;DHT22;12780;45.502;9.146;2022-09-03T13:40:13;27.60;99.90
24645;DHT22;12780;45.502;9.146;2022-09-03T13:42:52;27.40;99.90
24645;DHT22;12780;45.502;9.146;2022-09-03T13:45:37;27.30;99.90
24645;DHT22;12780;45.502;9.146;2022-09-03T13:54:27;27.40;99.90
24645;DHT22;12780;45.502;9.146;2022-09-03T13:57:06;27.40;99.90
24645;DHT22;12780;45.502;9.146;2022-09-03T13:59:47;27.40;99.90
24645;DHT22;12780;45.502;9.146;2022-09-03T14:10:27;27.30;99.90
24645;DHT22;12780;45.502;9.146;2022-09-03T14:13:21;27.40;99.90
24645;DHT22;12780;45.502;9.146;2022-09-03T14:15:55;27.40;99.90
24645;DHT22;12780;45.502;9.146;2022-09-03T14:21:07;27.20;99.90
24645;DHT22;12780;45.502;9.146;2022-09-03T14:26:04;27.20;99.90
24645;DHT22;12780;45.502;9.146;2022-09-03T14:28:39;27.10;99.90
24645;DHT22;12780;45.502;9.146;2022-09-03T14:33:59;27.00;99.90
24645;DHT22;12780;45.502;9.146;2022-09-03T14:36:52;27.00;99.90
24645;DHT22;12780;45.502;9.146;2022-09-03T14:39:39;27.20;99.90
24645;DHT22;12780;45.502;9.146;2022-09-03T14:42:18;27.20;99.90
24645;DHT22;12780;45.502;9.146;2022-09-03T14:50:32;27.30;99.90
24645;DHT22;12780;45.502;9.146;2022-09-03T14:56:25;27.40;99.90
24645;DHT22;12780;45.502;9.146;2022-09-03T14:59:21;27.40;99.90
24645;DHT22;12780;45.502;9.146;2022-09-03T15:05:12;27.20;99.90
24645;DHT22;12780;45.502;9.146;2022-09-03T15:08:10;27.10;99.90
24645;DHT22;12780;45.502;9.146;2022-09-03T15:10:49;26.90;99.90
24645;DHT22;12780;45.502;9.146;2022-09-03T15:13:19;26.90;99.90
24645;DHT22;12780;45.502;9.146;2022-09-03T15:18:31;27.10;99.90
24645;DHT22;12780;45.502;9.146;2022-09-03T15:30:07;27.30;99.90
24645;DHT22;12780;45.502;9.146;2022-09-03T15:36:05;27.20;99.90
24645;DHT22;12780;45.502;9.146;2022-09-03T15:41:28;27.10;99.90
24645;DHT22;12780;45.502;9.146;2022-09-03T15:43:58;27.00;99.90
24645;DHT22;12780;45.502;9.146;2022-09-03T15:46:57;26.90;99.90
24645;DHT22;12780;45.502;9.146;2022-09-03T15:49:46;26.80;99.90
24645;DHT22;12780;45.502;9.146;2022-09-03T16:00:18;26.80;99.90
24645;DHT22;12780;45.502;9.146;2022-09-03T16:03:10;26.70;99.90
24645;DHT22;12780;45.502;9.146;2022-09-03T16:05:59;26.80;99.90
24645;DHT22;12780;45.502;9.146;2022-09-03T16:08:49;26.80;99.90
24645;DHT22;12780;45.502;9.146;2022-09-03T16:19:09;26.90;99.90
24645;DHT22;12780;45.502;9.146;2022-09-03T16:21:48;26.80;99.90
24645;DHT22;12780;45.502;9.146;2022-09-03T16:27:06;26.70;99.90
24645;DHT22;12780;45.502;9.146;2022-09-03T16:29:33;26.70;99.90
24645;DHT22;12780;45.502;9.146;2022-09-03T16:32:26;26.70;99.90
24645;DHT22;12780;45.502;9.146;2022-09-03T16:41:16;26.60;99.90
24645;DHT22;12780;45.502;9.146;2022-09-03T16:49:26;26.50;99.90
24645;DHT22;12780;45.502;9.146;2022-09-03T16:59:57;26.60;99.90
24645;DHT22;12780;45.502;9.146;2022-09-03T17:02:49;26.60;99.90
24645;DHT22;12780;45.502;9.146;2022-09-03T17:05:45;26.50;99.90
24645;DHT22;12780;45.502;9.146;2022-09-03T17:17:00;26.50;99.90
24645;DHT22;12780;45.502;9.146;2022-09-03T17:22:44;26.40;99.90
24645;DHT22;12780;45.502;9.146;2022-09-03T17:25:36;26.30;99.90
24645;DHT22;12780;45.502;9.146;2022-09-03T17:28:15;26.40;99.90
24645;DHT22;12780;45.502;9.146;2022-09-03T17:30:56;26.40;99.90
24645;DHT22;12780;45.502;9.146;2022-09-03T17:36:07;26.30;99.90
24645;DHT22;12780;45.502;9.146;2022-09-03T17:41:51;26.40;99.90
24645;DHT22;12780;45.502;9.146;2022-09-03T17:44:44;26.30;99.90
24645;DHT22;12780;45.502;9.146;2022-09-03T17:50:13;26.20;99.90
24645;DHT22;12780;45.502;9.146;2022-09-03T17:52:49;26.10;99.90
24645;DHT22;12780;45.502;9.146;2022-09-03T17:55:27;26.10;99.90
24645;DHT22;12780;45.502;9.146;2022-09-03T17:58:10;26.10;99.90
24645;DHT22;12780;45.502;9.146;2022-09-03T18:00:44;26.00;99.90
24645;DHT22;12780;45.502;9.146;2022-09-03T18:03:23;26.00;99.90
24645;DHT22;12780;45.502;9.146;2022-09-03T18:05:57;26.00;99.90
24645;DHT22;12780;45.502;9.146;2022-09-03T18:08:35;26.00;99.90
24645;DHT22;12780;45.502;9.146;2022-09-03T18:16:47;25.80;99.90
24645;DHT22;12780;45.502;9.146;2022-09-03T18:19:36;25.80;99.90
24645;DHT22;12780;45.502;9.146;2022-09-03T18:22:26;25.80;99.90
24645;DHT22;12780;45.502;9.146;2022-09-03T18:25:13;25.80;99.90
24645;DHT22;12780;45.502;9.146;2022-09-03T18:28:02;25.80;99.90
24645;DHT22;12780;45.502;9.146;2022-09-03T18:30:48;25.70;99.90
24645;DHT22;12780;45.502;9.146;2022-09-03T18:33:32;25.70;99.90
24645;DHT22;12780;45.502;9.146;2022-09-03T18:36:16;25.70;99.90
24645;DHT22;12780;45.502;9.146;2022-09-03T18:39:24;25.70;99.90
24645;DHT22;12780;45.502;9.146;2022-09-03T18:42:18;25.70;99.90
24645;DHT22;12780;45.502;9.146;2022-09-03T18:48:42;25.70;99.90
24645;DHT22;12780;45.502;9.146;2022-09-03T18:51:50;25.70;99.90
24645;DHT22;12780;45.502;9.146;2022-09-03T19:00:34;25.60;99.90
24645;DHT22;12780;45.502;9.146;2022-09-03T19:07:06;25.50;99.90
24645;DHT22;12780;45.502;9.146;2022-09-03T19:10:03;25.50;99.90
24645;DHT22;12780;45.502;9.146;2022-09-03T19:13:04;25.50;99.90
24645;DHT22;12780;45.502;9.146;2022-09-03T19:22:36;25.40;99.90
24645;DHT22;12780;45.502;9.146;2022-09-03T19:25:19;25.40;99.90
24645;DHT22;12780;45.502;9.146;2022-09-03T19:28:19;25.40;99.90
24645;DHT22;12780;45.502;9.146;2022-09-03T19:38:04;25.30;99.90
24645;DHT22;12780;45.502;9.146;2022-09-03T19:41:05;25.30;99.90
24645;DHT22;12780;45.502;9.146;2022-09-03T19:47:02;25.30;99.90
24645;DHT22;12780;45.502;9.146;2022-09-03T19:50:03;25.20;99.90
24645;DHT22;12780;45.502;9.146;2022-09-03T19:53:00;25.20;99.90
24645;DHT22;12780;45.502;9.146;2022-09-03T19:55:48;25.20;99.90
24645;DHT22;12780;45.502;9.146;2022-09-03T19:58:39;25.10;99.90
24645;DHT22;12780;45.502;9.146;2022-09-03T20:01:30;25.10;99.90
24645;DHT22;12780;45.502;9.146;2022-09-03T20:04:15;25.00;99.90
24645;DHT22;12780;45.502;9.146;2022-09-03T20:07:02;25.00;99.90
24645;DHT22;12780;45.502;9.146;2022-09-03T20:09:48;25.00;99.90
24645;DHT22;12780;45.502;9.146;2022-09-03T20:12:41;25.00;99.90
24645;DHT22;12780;45.502;9.146;2022-09-03T20:15:08;25.00;99.90
24645;DHT22;12780;45.502;9.146;2022-09-03T20:22:49;25.00;99.90
24645;DHT22;12780;45.502;9.146;2022-09-03T20:41:22;24.80;99.90
24645;DHT22;12780;45.502;9.146;2022-09-03T20:44:42;24.80;99.90
24645;DHT22;12780;45.502;9.146;2022-09-03T20:52:19;24.70;99.90
24645;DHT22;12780;45.502;9.146;2022-09-03T21:03:34;24.30;99.90
24645;DHT22;12780;45.502;9.146;2022-09-03T21:11:38;24.30;99.90
24645;DHT22;12780;45.502;9.146;2022-09-03T21:17:19;24.20;99.90
24645;DHT22;12780;45.502;9.146;2022-09-03T21:25:54;24.30;99.90
24645;DHT22;12780;45.502;9.146;2022-09-03T21:28:30;24.30;99.90
24645;DHT22;12780;45.502;9.146;2022-09-03T21:31:01;24.20;99.90
24645;DHT22;12780;45.502;9.146;2022-09-03T21:33:38;24.30;99.90
24645;DHT22;12780;45.502;9.146;2022-09-03T21:36:13;24.20;99.90
24645;DHT22;12780;45.502;9.146;2022-09-03T21:38:41;24.30;99.90
24645;DHT22;12780;45.502;9.146;2022-09-03T21:41:31;24.20;99.90
24645;DHT22;12780;45.502;9.146;2022-09-03T21:44:13;24.20;99.90
24645;DHT22;12780;45.502;9.146;2022-09-03T21:46:55;24.20;99.90
24645;DHT22;12780;45.502;9.146;2022-09-03T21:49:31;24.20;99.90
24645;DHT22;12780;45.502;9.146;2022-09-03T21:52:12;24.20;99.90
24645;DHT22;12780;45.502;9.146;2022-09-03T21:54:39;24.20;99.90
24645;DHT22;12780;45.502;9.146;2022-09-03T22:04:41;24.10;99.90